Stover, South Carolina
Current Conditions -  °F | °C
As of 4:15 AM on Sunday 21 Dec 2014 (Local Time) from KDCM Reporting Station
Overcast Overcast  
Wind Chill: 40°   Ceiling: 2500
Heat Index: 43°   Visibility: 7mi
Dew Point: 37°   Wind: 5mph
Humidity: 81%   Direction: 30°NNE
Pressure: 30.24"   Gusts: NA
Location:  34.5772°N, 81.1021°W
Report Text: KDCM 210915Z AUTO 03004KT 7SM OVC025 06/03 A3024 RMK AO2
Loading
Personal Weather Stations






























Interactive Weather Map New forecast layout! Learn more

10-Day Weather Forecast

Advertisements
Track Severe Weather on mobile